Time;durP1;ratioP1;P1;durP2;ratioP2;P2;SDS_P1;SDS_P2;PMS_P1;PMS_P2;Temp;Humidity;BMP_temperature;BMP_pressure;BME280_temperature;BME280_humidity;BME280_pressure;Samples;Min_cycle;Max_cycle;Signal;HPM_P1;HPM_P2
2021/12/22 00:00:51;;;;;;;10.43;6.43;;;;;;;0.17;100.00;102396.28;5040865;28;20230;-57
2021/12/22 00:03:18;;;;;;;8.70;5.93;;;;;;;0.11;100.00;102394.22;5041607;28;20264;-55
2021/12/22 00:05:46;;;;;;;8.70;6.17;;;;;;;0.02;100.00;102388.41;5041043;28;20235;-54
2021/12/22 00:08:14;;;;;;;9.97;7.47;;;;;;;0.07;100.00;102386.13;5042000;28;20732;-54
2021/12/22 00:10:40;;;;;;;9.07;6.50;;;;;;;0.08;100.00;102387.94;5041787;28;20356;-55
2021/12/22 00:13:07;;;;;;;8.67;6.93;;;;;;;-0.09;100.00;102385.09;5041431;28;20228;-55
2021/12/22 00:15:33;;;;;;;6.50;5.73;;;;;;;-0.01;100.00;102383.03;5039286;28;20325;-55
2021/12/22 00:18:01;;;;;;;10.43;7.97;;;;;;;0.16;100.00;102389.34;5041404;28;20235;-52
2021/12/22 00:20:27;;;;;;;10.50;6.70;;;;;;;0.22;100.00;102394.94;5041236;28;20249;-55
2021/12/22 00:22:54;;;;;;;9.53;7.23;;;;;;;0.34;100.00;102392.25;5045294;28;20254;-52
2021/12/22 00:25:24;;;;;;;9.00;6.43;;;;;;;0.07;100.00;102396.44;5044437;28;20254;-54
2021/12/22 00:27:51;;;;;;;10.63;6.50;;;;;;;0.11;100.00;102393.31;5045152;28;20235;-55
2021/12/22 00:30:18;;;;;;;10.30;6.97;;;;;;;-0.06;100.00;102398.22;5044077;28;20239;-55
2021/12/22 00:32:50;;;;;;;8.30;5.77;;;;;;;0.03;100.00;102394.47;5045153;28;20245;-52
2021/12/22 00:35:19;;;;;;;7.40;5.03;;;;;;;-0.17;100.00;102396.59;5043250;28;20326;-54
2021/12/22 00:37:46;;;;;;;6.67;4.87;;;;;;;-0.07;100.00;102399.00;5045877;28;20223;-54
2021/12/22 00:40:13;;;;;;;7.03;5.77;;;;;;;-0.10;100.00;102395.31;5046736;28;20238;-54
2021/12/22 00:42:39;;;;;;;8.27;5.97;;;;;;;-0.01;100.00;102404.56;5046431;28;20260;-54
2021/12/22 00:45:06;;;;;;;6.63;5.87;;;;;;;0.01;100.00;102401.22;5045052;28;20269;-54
2021/12/22 00:47:33;;;;;;;8.90;5.37;;;;;;;0.05;100.00;102408.38;5049485;22;20600;-51
2021/12/22 00:50:00;;;;;;;8.63;5.63;;;;;;;0.28;100.00;102407.34;5063491;28;20307;-51
2021/12/22 00:52:28;;;;;;;11.43;5.77;;;;;;;0.17;100.00;102419.53;5063094;28;20307;-51
2021/12/22 00:54:54;;;;;;;8.47;6.10;;;;;;;0.21;100.00;102416.34;5062144;28;20257;-52
2021/12/22 00:57:21;;;;;;;10.57;7.20;;;;;;;0.29;100.00;102417.81;5062858;28;20281;-50
2021/12/22 00:59:48;;;;;;;8.20;7.00;;;;;;;0.23;100.00;102419.97;5065387;28;20233;-51
2021/12/22 01:02:16;;;;;;;14.80;7.33;;;;;;;0.19;100.00;102415.38;5063650;28;20306;-53
2021/12/22 01:04:43;;;;;;;10.47;6.87;;;;;;;0.19;100.00;102412.78;5064819;28;20290;-51
2021/12/22 01:07:10;;;;;;;7.03;4.83;;;;;;;0.18;100.00;102411.03;5060732;28;20247;-53
2021/12/22 01:09:38;;;;;;;12.93;5.93;;;;;;;0.19;100.00;102420.53;5063689;28;20253;-52
2021/12/22 01:12:06;;;;;;;13.20;6.90;;;;;;;-0.05;100.00;102418.06;5062616;28;20380;-52
2021/12/22 01:14:32;;;;;;;13.97;6.50;;;;;;;-0.10;100.00;102411.69;5062961;28;20234;-51
2021/12/22 01:17:01;;;;;;;11.63;6.83;;;;;;;-0.33;100.00;102414.34;5062377;28;20262;-53
2021/12/22 01:19:36;;;;;;;8.87;6.27;;;;;;;-0.34;100.00;102418.63;5061263;28;20254;-51
2021/12/22 01:22:09;;;;;;;10.50;6.40;;;;;;;-0.23;100.00;102411.63;5060511;28;20261;-53
2021/12/22 01:24:35;;;;;;;13.87;6.93;;;;;;;-0.19;100.00;102412.75;5062594;28;20222;-52
2021/12/22 01:27:07;;;;;;;9.43;7.23;;;;;;;-0.20;100.00;102419.59;5063692;28;20244;-52
2021/12/22 01:29:35;;;;;;;8.73;6.70;;;;;;;-0.25;100.00;102421.88;5059788;28;20245;-51
2021/12/22 01:32:02;;;;;;;10.43;6.87;;;;;;;-0.22;100.00;102416.00;5062187;28;20234;-52
2021/12/22 01:34:29;;;;;;;8.50;6.53;;;;;;;-0.38;100.00;102419.22;5059519;28;20235;-55
2021/12/22 01:36:55;;;;;;;13.03;7.43;;;;;;;-0.27;100.00;102426.00;5061812;28;20238;-53
2021/12/22 01:39:22;;;;;;;12.57;8.30;;;;;;;-0.10;100.00;102422.03;5060409;28;20747;-51
2021/12/22 01:41:48;;;;;;;12.33;7.00;;;;;;;-0.07;99.97;102427.41;5061248;28;20257;-51
2021/12/22 01:44:27;;;;;;;11.83;7.97;;;;;;;0.04;99.69;102429.84;5062294;28;20254;-53
2021/12/22 01:49:49;;;;;;;10.37;6.77;;;;;;;-0.04;98.72;102444.78;5061660;28;20320;-54
2021/12/22 01:52:15;;;;;;;15.97;9.33;;;;;;;-0.14;98.42;102439.75;5060419;28;20229;-53
2021/12/22 01:54:46;;;;;;;12.07;8.13;;;;;;;-0.22;98.53;102441.81;5061379;28;20315;-54
2021/12/22 01:57:13;;;;;;;9.83;7.17;;;;;;;-0.21;98.43;102434.97;5062284;28;20757;-53
2021/12/22 01:59:42;;;;;;;10.57;7.20;;;;;;;-0.28;98.80;102433.63;5061509;28;20734;-53
2021/12/22 02:02:11;;;;;;;15.40;7.63;;;;;;;-0.31;99.31;102429.16;5063176;28;20264;-55
2021/12/22 02:04:38;;;;;;;13.37;8.03;;;;;;;-0.29;99.40;102426.69;5061666;28;20304;-54
2021/12/22 02:07:05;;;;;;;7.93;6.40;;;;;;;-0.25;99.62;102431.28;5062680;28;20766;-51
2021/12/22 02:09:48;;;;;;;8.23;6.50;;;;;;;-0.09;99.50;102435.81;5062538;28;20236;-53
2021/12/22 02:15:38;;;;;;;11.27;8.13;;;;;;;0.28;97.49;102413.44;5050827;28;20642;-53
2021/12/22 02:18:05;;;;;;;11.63;7.30;;;;;;;0.43;97.05;102406.69;5057658;28;20322;-53
2021/12/22 02:20:32;;;;;;;8.83;6.70;;;;;;;0.47;96.80;102411.28;5067204;28;20261;-53
2021/12/22 02:22:59;;;;;;;13.67;7.93;;;;;;;0.46;95.80;102419.84;5059934;28;20244;-54
2021/12/22 02:25:34;;;;;;;10.87;7.50;;;;;;;0.30;96.37;102410.94;5061907;28;20238;-53
2021/12/22 02:28:03;;;;;;;10.27;7.53;;;;;;;0.32;97.47;102414.53;5064473;28;20236;-52
2021/12/22 02:30:29;;;;;;;8.57;7.57;;;;;;;0.18;97.63;102411.91;5060811;28;20239;-52
2021/12/22 02:35:55;;;;;;;7.40;6.70;;;;;;;0.12;99.06;102410.59;5056498;28;20327;-53
2021/12/22 02:38:22;;;;;;;9.57;7.13;;;;;;;0.05;99.69;102413.53;5060581;28;20328;-52
2021/12/22 02:40:51;;;;;;;10.60;7.03;;;;;;;0.13;99.23;102414.94;5061972;28;20254;-52
2021/12/22 02:43:21;;;;;;;11.20;7.00;;;;;;;0.24;98.70;102411.41;5057321;28;20327;-53
2021/12/22 02:45:48;;;;;;;9.57;7.30;;;;;;;0.41;97.39;102410.84;5064705;28;20231;-51
2021/12/22 02:48:15;;;;;;;11.97;7.37;;;;;;;0.45;96.49;102407.69;5061257;28;20618;-51
2021/12/22 02:50:41;;;;;;;8.83;7.93;;;;;;;0.24;96.94;102412.28;5064133;28;20543;-53
2021/12/22 02:53:11;;;;;;;13.97;8.23;;;;;;;0.31;97.36;102410.13;5065315;28;20254;-52
2021/12/22 02:55:48;;;;;;;11.27;7.33;;;;;;;0.40;96.19;102409.06;5065823;28;20593;-54
2021/12/22 02:58:23;;;;;;;9.83;7.47;;;;;;;0.45;96.39;102410.25;5062810;28;20601;-55
2021/12/22 03:01:03;;;;;;;10.30;8.13;;;;;;;0.32;96.18;102407.69;5064793;28;20241;-52
2021/12/22 03:03:46;;;;;;;10.30;6.67;;;;;;;0.17;95.53;102404.94;5064381;28;20328;-52
2021/12/22 03:06:16;;;;;;;7.80;6.30;;;;;;;0.32;96.48;102404.19;5063397;28;20576;-53
2021/12/22 03:08:44;;;;;;;10.80;6.87;;;;;;;0.27;96.96;102406.44;5063098;28;20325;-54
2021/12/22 03:11:10;;;;;;;8.07;6.33;;;;;;;0.26;96.96;102404.66;5065759;28;20292;-53
2021/12/22 03:13:37;;;;;;;10.47;6.93;;;;;;;0.22;96.95;102408.75;5061333;28;20239;-52
2021/12/22 03:16:03;;;;;;;9.57;6.60;;;;;;;0.25;96.81;102402.88;5061856;28;20232;-52
2021/12/22 03:18:31;;;;;;;7.57;6.30;;;;;;;0.06;96.18;102398.13;5061869;28;20249;-54
2021/12/22 03:21:05;;;;;;;5.63;5.10;;;;;;;0.01;96.08;102396.94;5061174;28;20720;-51
2021/12/22 03:23:31;;;;;;;11.70;5.83;;;;;;;0.01;97.02;102402.13;5060792;28;20343;-55
2021/12/22 03:25:59;;;;;;;10.07;6.30;;;;;;;0.07;97.05;102399.03;5061259;28;20233;-53
2021/12/22 03:28:25;;;;;;;6.03;5.40;;;;;;;0.05;97.24;102403.22;5060170;28;20330;-53
2021/12/22 03:30:53;;;;;;;10.83;5.57;;;;;;;0.10;97.82;102405.31;5060857;28;20239;-53
2021/12/22 03:33:20;;;;;;;7.17;5.13;;;;;;;0.01;97.49;102407.28;5062186;28;20328;-55
2021/12/22 03:35:46;;;;;;;9.23;5.40;;;;;;;0.16;97.47;102407.41;5062015;28;20285;-53
2021/12/22 03:38:12;;;;;;;5.43;4.90;;;;;;;0.26;96.56;102409.84;5064569;28;20252;-52
2021/12/22 03:40:39;;;;;;;5.53;4.60;;;;;;;0.28;94.33;102407.34;5063338;28;20241;-53
2021/12/22 03:46:29;;;;;;;4.70;3.97;;;;;;;0.27;93.99;102401.28;5080777;28;20236;-54
2021/12/22 03:48:55;;;;;;;6.33;4.03;;;;;;;0.25;94.77;102402.88;5086547;28;20245;-52
2021/12/22 03:51:21;;;;;;;6.57;4.03;;;;;;;0.03;94.69;102404.78;5089873;28;20329;-53
2021/12/22 03:53:48;;;;;;;4.83;3.93;;;;;;;0.21;94.42;102401.78;5077311;28;20363;-58
2021/12/22 03:56:14;;;;;;;6.47;3.27;;;;;;;0.32;93.84;102399.94;5080244;28;20233;-55
2021/12/22 03:58:40;;;;;;;6.47;4.13;;;;;;;0.30;93.49;102406.66;5080298;28;20235;-53
2021/12/22 04:01:07;;;;;;;4.00;3.60;;;;;;;0.20;93.98;102399.97;5075628;28;20256;-52
2021/12/22 04:03:37;;;;;;;3.80;3.20;;;;;;;0.38;93.38;102389.97;5079593;28;20267;-54
2021/12/22 04:06:03;;;;;;;7.97;3.53;;;;;;;0.34;92.39;102390.56;5078046;28;20230;-54
2021/12/22 04:08:30;;;;;;;4.57;2.90;;;;;;;0.41;91.63;102395.34;5080161;28;20259;-52
2021/12/22 04:10:56;;;;;;;2.83;2.60;;;;;;;0.31;91.50;102392.94;5081224;28;20223;-56
2021/12/22 04:13:23;;;;;;;4.53;2.50;;;;;;;0.27;91.00;102387.47;5085948;28;20253;-53
2021/12/22 04:15:49;;;;;;;3.27;2.97;;;;;;;0.30;91.03;102380.84;5076082;28;20230;-52
2021/12/22 04:18:17;;;;;;;3.47;3.23;;;;;;;0.39;90.48;102381.47;5079417;28;20231;-58
2021/12/22 04:20:45;;;;;;;3.37;3.07;;;;;;;0.22;90.59;102389.75;5083668;28;20227;-55
2021/12/22 04:23:11;;;;;;;5.73;3.67;;;;;;;-0.09;91.97;102390.25;5084106;28;20261;-53
2021/12/22 04:25:38;;;;;;;5.77;3.23;;;;;;;-0.04;91.17;102390.56;5076154;28;20245;-54
2021/12/22 04:28:09;;;;;;;7.63;3.20;;;;;;;-0.03;92.61;102388.09;5080299;28;20708;-55
2021/12/22 04:30:38;;;;;;;5.43;3.40;;;;;;;-0.04;92.19;102386.28;5076010;28;20286;-52
2021/12/22 04:33:05;;;;;;;4.33;3.47;;;;;;;-0.09;91.96;102385.09;5078373;28;20262;-53
2021/12/22 04:35:32;;;;;;;6.80;3.23;;;;;;;-0.15;92.58;102383.78;5071348;28;20256;-53
2021/12/22 04:38:00;;;;;;;4.80;3.53;;;;;;;-0.07;93.46;102383.53;5070668;28;20287;-53
2021/12/22 04:40:26;;;;;;;7.03;4.17;;;;;;;-0.08;92.73;102388.56;5078850;28;20242;-54
2021/12/22 04:42:53;;;;;;;8.30;3.17;;;;;;;-0.15;92.05;102389.81;5088629;28;20243;-55
2021/12/22 04:45:19;;;;;;;4.30;3.33;;;;;;;-0.13;92.64;102387.38;5078126;28;20263;-57
2021/12/22 04:47:47;;;;;;;4.00;3.50;;;;;;;-0.01;93.19;102383.91;5076338;28;20283;-55
2021/12/22 04:50:17;;;;;;;4.77;3.80;;;;;;;-0.02;93.41;102387.28;5075604;28;20224;-55
2021/12/22 04:52:50;;;;;;;4.37;3.97;;;;;;;0.06;93.31;102379.19;5087887;28;20243;-56
2021/12/22 04:55:18;;;;;;;4.17;3.77;;;;;;;0.10;93.11;102383.75;5082306;28;20507;-54
2021/12/22 04:57:44;;;;;;;5.13;3.60;;;;;;;0.05;92.34;102387.72;5083926;28;20288;-53
2021/12/22 05:00:13;;;;;;;7.57;4.57;;;;;;;0.21;92.18;102377.63;5082741;28;20226;-55
2021/12/22 05:02:39;;;;;;;7.30;4.40;;;;;;;0.10;91.95;102381.16;5082819;28;20261;-54
2021/12/22 05:05:06;;;;;;;8.33;4.13;;;;;;;-0.02;90.63;102391.56;5079453;28;20237;-54
2021/12/22 05:07:33;;;;;;;8.43;4.53;;;;;;;-0.26;91.73;102390.78;5081462;28;20231;-55
2021/12/22 05:09:59;;;;;;;9.07;5.03;;;;;;;-0.25;91.84;102392.56;5079386;28;20284;-55
2021/12/22 05:12:27;;;;;;;7.63;3.80;;;;;;;-0.22;92.93;102384.13;5080063;28;20234;-55
2021/12/22 05:14:53;;;;;;;5.10;4.60;;;;;;;-0.25;92.95;102384.81;5082809;28;20604;-55
2021/12/22 05:17:24;;;;;;;7.67;4.83;;;;;;;-0.16;92.64;102388.03;5085808;28;20231;-56
2021/12/22 05:19:50;;;;;;;5.57;4.60;;;;;;;-0.12;91.85;102395.19;5078232;28;20586;-54
2021/12/22 05:22:17;;;;;;;7.53;4.33;;;;;;;-0.30;92.76;102386.19;5075089;28;20647;-58
2021/12/22 05:24:43;;;;;;;5.83;4.90;;;;;;;-0.19;92.96;102387.81;5079640;28;20233;-55
2021/12/22 05:27:11;;;;;;;7.03;5.53;;;;;;;-0.14;92.54;102391.63;5085603;28;20227;-54
2021/12/22 05:29:39;;;;;;;7.77;5.50;;;;;;;0.01;92.23;102383.16;5085863;28;20229;-56
2021/12/22 05:32:07;;;;;;;9.97;5.30;;;;;;;0.12;91.06;102389.94;5086672;28;20264;-55
2021/12/22 05:34:34;;;;;;;7.43;5.37;;;;;;;-0.14;91.72;102391.63;5086234;28;20234;-53
2021/12/22 05:37:00;;;;;;;5.70;5.13;;;;;;;-0.02;91.54;102384.72;5079986;28;20243;-53
2021/12/22 05:39:26;;;;;;;7.67;5.87;;;;;;;-0.04;91.04;102386.28;5085615;28;20228;-57
2021/12/22 05:41:54;;;;;;;9.03;5.73;;;;;;;-0.13;91.93;102383.09;5077942;28;20235;-54
2021/12/22 05:44:20;;;;;;;7.97;5.90;;;;;;;-0.31;92.25;102384.41;5086677;28;20294;-55
2021/12/22 05:46:48;;;;;;;11.07;6.53;;;;;;;-0.28;93.15;102387.19;5082748;28;20571;-53
2021/12/22 05:49:15;;;;;;;10.07;6.93;;;;;;;-0.18;92.90;102389.59;5086540;28;20245;-54
2021/12/22 05:51:41;;;;;;;12.67;8.17;;;;;;;-0.06;92.00;102384.41;5083376;28;20283;-53
2021/12/22 05:54:07;;;;;;;7.97;6.77;;;;;;;-0.14;91.49;102380.38;5086001;28;20234;-55
2021/12/22 05:56:34;;;;;;;12.93;6.60;;;;;;;-0.05;91.14;102381.91;5086886;28;20316;-54
2021/12/22 05:59:01;;;;;;;9.67;6.93;;;;;;;-0.11;91.89;102381.50;5087053;28;20238;-53
2021/12/22 06:01:30;;;;;;;10.53;7.30;;;;;;;-0.22;91.98;102377.28;5084810;28;20867;-55
2021/12/22 06:03:59;;;;;;;9.87;7.57;;;;;;;-0.37;92.28;102378.81;5077848;28;20238;-56
2021/12/22 06:06:26;;;;;;;11.23;7.63;;;;;;;-0.37;92.91;102373.66;5081215;28;20223;-53
2021/12/22 06:08:52;;;;;;;9.13;7.23;;;;;;;-0.41;93.37;102374.25;5071021;28;20223;-53
2021/12/22 06:11:19;;;;;;;11.17;7.27;;;;;;;-0.54;93.53;102375.94;5063787;28;20238;-54
2021/12/22 06:13:45;;;;;;;9.53;6.23;;;;;;;-0.42;93.87;102373.34;5068603;28;20232;-53
2021/12/22 06:16:11;;;;;;;9.87;7.27;;;;;;;-0.39;94.07;102373.53;5065625;28;20233;-52
2021/12/22 06:18:43;;;;;;;9.43;7.63;;;;;;;-0.41;94.61;102376.81;5064935;28;20304;-53
2021/12/22 06:21:12;;;;;;;9.70;6.60;;;;;;;-0.40;94.01;102376.00;5062034;28;20238;-50
2021/12/22 06:23:38;;;;;;;11.17;7.13;;;;;;;-0.55;94.05;102381.91;5062057;28;20667;-52
2021/12/22 06:26:05;;;;;;;8.33;6.70;;;;;;;-0.50;94.23;102377.06;5061800;28;20314;-53
2021/12/22 06:28:33;;;;;;;13.43;7.57;;;;;;;-0.49;94.70;102387.50;5064111;28;20231;-52
2021/12/22 06:30:59;;;;;;;10.73;7.67;;;;;;;-0.43;94.20;102375.81;5061968;28;20231;-55
2021/12/22 06:33:25;;;;;;;9.87;6.60;;;;;;;-0.42;94.55;102388.81;5061394;28;20251;-52
2021/12/22 06:35:52;;;;;;;7.63;6.83;;;;;;;-0.39;94.77;102388.13;5056315;28;20360;-51
2021/12/22 06:38:20;;;;;;;10.83;7.30;;;;;;;-0.52;94.56;102391.53;5058449;28;20251;-52
2021/12/22 06:40:46;;;;;;;10.40;8.53;;;;;;;-0.49;94.97;102395.25;5059303;28;20312;-53
2021/12/22 06:43:15;;;;;;;10.37;8.00;;;;;;;-0.42;95.20;102396.56;5058788;28;20295;-52
2021/12/22 06:45:41;;;;;;;8.97;7.47;;;;;;;-0.56;95.26;102389.50;5058223;28;20302;-54
2021/12/22 06:48:08;;;;;;;10.03;7.93;;;;;;;-0.48;95.53;102390.97;5057159;28;20259;-51
2021/12/22 06:53:09;;;;;;;11.10;7.43;;;;;;;-0.69;96.66;102382.63;5039114;28;20293;-55
2021/12/22 06:55:37;;;;;;;9.67;8.03;;;;;;;-0.69;96.92;102387.78;5040968;28;20242;-56
2021/12/22 06:58:03;;;;;;;11.50;6.87;;;;;;;-0.65;96.55;102394.03;5042927;28;20284;-54
2021/12/22 07:00:30;;;;;;;10.10;7.33;;;;;;;-0.72;96.53;102387.53;5045184;28;20238;-57
2021/12/22 07:02:57;;;;;;;11.37;8.20;;;;;;;-0.73;96.74;102380.59;5040282;28;20343;-56
2021/12/22 07:05:24;;;;;;;10.83;7.50;;;;;;;-0.76;96.97;102382.97;5043004;28;20258;-57
2021/12/22 07:07:50;;;;;;;9.20;7.70;;;;;;;-0.75;96.78;102385.63;5043125;28;20238;-56
2021/12/22 07:10:17;;;;;;;12.93;7.30;;;;;;;-0.84;97.24;102386.66;5038697;28;20303;-55
2021/12/22 07:12:46;;;;;;;11.10;7.57;;;;;;;-0.75;97.34;102390.78;5044298;28;20315;-56
2021/12/22 07:15:14;;;;;;;14.33;8.67;;;;;;;-0.79;96.97;102391.38;5037566;28;20224;-57
2021/12/22 07:17:41;;;;;;;12.00;6.83;;;;;;;-0.77;97.12;102381.19;5041945;28;20311;-54
2021/12/22 07:20:09;;;;;;;12.33;8.27;;;;;;;-0.81;97.21;102386.88;5045049;28;20234;-57
2021/12/22 07:22:35;;;;;;;12.03;8.60;;;;;;;-0.70;96.36;102379.91;5043778;28;20288;-56
2021/12/22 07:25:02;;;;;;;9.23;7.43;;;;;;;-0.66;96.27;102389.69;5045795;28;20230;-56
2021/12/22 07:27:28;;;;;;;10.03;8.30;;;;;;;-0.78;96.65;102387.09;5040882;28;20852;-56
2021/12/22 07:29:56;;;;;;;11.13;7.57;;;;;;;-0.77;96.75;102394.06;5043277;28;20288;-58
2021/12/22 07:32:22;;;;;;;13.33;8.07;;;;;;;-0.79;96.83;102395.63;5047417;28;22498;-55
2021/12/22 07:34:53;;;;;;;11.90;8.93;;;;;;;-0.80;97.46;102388.69;5048374;28;20278;-56
2021/12/22 07:37:23;;;;;;;11.90;8.13;;;;;;;-0.79;96.97;102385.31;5048895;28;20727;-57
2021/12/22 07:39:51;;;;;;;10.73;8.53;;;;;;;-0.73;97.26;102393.50;5048374;28;20926;-57
2021/12/22 07:42:18;;;;;;;14.97;8.63;;;;;;;-0.82;98.08;102395.41;5047055;28;20236;-56
2021/12/22 07:44:44;;;;;;;14.47;8.13;;;;;;;-0.77;97.74;102392.38;5043880;28;20252;-53
2021/12/22 07:47:12;;;;;;;13.37;8.67;;;;;;;-0.64;97.67;102395.81;5045433;28;20251;-55
2021/12/22 07:49:38;;;;;;;13.37;8.70;;;;;;;-0.65;97.15;102405.25;5049114;28;20227;-55
2021/12/22 07:52:05;;;;;;;12.33;9.33;;;;;;;-0.72;97.34;102391.03;5049169;28;20269;-55
2021/12/22 07:54:31;;;;;;;16.90;8.17;;;;;;;-0.66;97.25;102393.16;5048177;28;20242;-57
2021/12/22 07:56:57;;;;;;;11.73;8.87;;;;;;;-0.64;97.26;102399.28;5048461;28;20288;-57
2021/12/22 07:59:24;;;;;;;14.17;9.20;;;;;;;-0.66;97.02;102388.00;5047314;28;20246;-57
2021/12/22 08:01:50;;;;;;;16.27;7.60;;;;;;;-0.58;97.11;102392.00;5045466;28;20667;-57
2021/12/22 08:04:18;;;;;;;12.87;8.43;;;;;;;-0.47;96.83;102389.28;5048051;28;20269;-56
2021/12/22 08:06:44;;;;;;;15.90;9.70;;;;;;;-0.43;95.83;102401.59;5055683;28;20266;-56
2021/12/22 08:09:11;;;;;;;14.90;10.30;;;;;;;-0.44;94.63;102400.72;5048435;28;20223;-56
2021/12/22 08:11:37;;;;;;;19.23;11.10;;;;;;;-0.54;94.96;102399.16;5048525;28;20245;-54
2021/12/22 08:14:03;;;;;;;18.57;11.37;;;;;;;-0.57;94.71;102396.34;5048602;28;20338;-53
2021/12/22 08:16:30;;;;;;;11.60;9.63;;;;;;;-0.57;94.62;102404.09;5048612;28;20238;-55
2021/12/22 08:18:56;;;;;;;15.97;10.40;;;;;;;-0.53;94.57;102406.13;5043479;28;20236;-56
2021/12/22 08:21:24;;;;;;;15.97;9.87;;;;;;;-0.44;93.99;102405.88;5048010;28;20379;-56
2021/12/22 08:23:50;;;;;;;27.17;13.27;;;;;;;-0.45;93.92;102405.78;5047777;28;20724;-57
2021/12/22 08:26:16;;;;;;;12.27;9.47;;;;;;;-0.41;93.50;102406.09;5044818;28;20254;-53
2021/12/22 08:28:46;;;;;;;14.47;9.80;;;;;;;-0.38;92.79;102410.56;5052158;28;20243;-56
2021/12/22 08:31:13;;;;;;;14.43;9.40;;;;;;;-0.45;92.83;102413.53;5051679;28;20768;-55
2021/12/22 08:33:44;;;;;;;11.33;8.10;;;;;;;-0.29;92.90;102408.63;5043116;28;20260;-55
2021/12/22 08:39:00;;;;;;;13.87;10.10;;;;;;;-0.23;91.66;102398.72;5046037;28;20228;-56
2021/12/22 08:41:29;;;;;;;13.60;10.20;;;;;;;-0.15;91.52;102407.00;5045863;28;20250;-56
2021/12/22 08:43:58;;;;;;;13.07;8.87;;;;;;;-0.11;90.79;102407.31;5048132;28;20231;-54
2021/12/22 08:46:25;;;;;;;16.20;9.83;;;;;;;-0.12;91.28;102402.94;5043662;28;20230;-55
2021/12/22 08:48:52;;;;;;;15.37;9.97;;;;;;;0.11;90.67;102393.31;5045976;28;21892;-54
2021/12/22 08:51:18;;;;;;;15.43;9.87;;;;;;;0.15;89.85;102395.31;5046499;28;20659;-53
2021/12/22 08:53:45;;;;;;;12.33;9.10;;;;;;;0.04;89.79;102402.31;5045420;28;20741;-56
2021/12/22 08:56:12;;;;;;;21.00;14.50;;;;;;;0.08;89.08;102395.69;5049166;28;20226;-54
2021/12/22 08:58:39;;;;;;;15.83;9.33;;;;;;;0.07;89.57;102393.88;5046583;28;20238;-54
2021/12/22 09:01:05;;;;;;;17.23;10.40;;;;;;;0.21;89.02;102395.69;5048602;28;20247;-54
2021/12/22 09:03:32;;;;;;;13.93;9.03;;;;;;;0.21;89.21;102390.53;5046667;28;20293;-53
2021/12/22 09:05:59;;;;;;;14.00;8.63;;;;;;;0.19;89.73;102393.03;5044781;28;20253;-56
2021/12/22 09:08:25;;;;;;;12.27;9.33;;;;;;;0.20;90.18;102388.75;5043856;28;20297;-52
2021/12/22 09:10:52;;;;;;;18.40;11.73;;;;;;;0.20;90.09;102394.81;5045242;28;20263;-54
2021/12/22 09:13:20;;;;;;;18.23;11.27;;;;;;;0.22;90.43;102395.81;5053003;28;20228;-55
2021/12/22 09:15:47;;;;;;;20.20;11.83;;;;;;;0.23;88.73;102388.97;5045682;28;20621;-55
2021/12/22 09:18:13;;;;;;;16.63;11.40;;;;;;;0.17;89.78;102393.72;5048811;28;20230;-55
2021/12/22 09:20:40;;;;;;;16.57;10.93;;;;;;;0.15;89.58;102384.97;5043769;28;20255;-54
2021/12/22 09:23:06;;;;;;;18.77;11.17;;;;;;;0.17;89.79;102388.53;5034464;28;20271;-56
2021/12/22 09:25:33;;;;;;;21.10;11.10;;;;;;;0.15;90.32;102385.88;5047605;28;20266;-57
2021/12/22 09:28:00;;;;;;;18.13;11.90;;;;;;;0.28;89.82;102390.19;5046254;28;20226;-56
2021/12/22 09:30:31;;;;;;;31.93;12.77;;;;;;;0.15;90.01;102390.16;5044337;28;20235;-55
2021/12/22 09:32:58;;;;;;;18.27;11.90;;;;;;;0.21;90.33;102380.19;5043654;28;20803;-58
2021/12/22 09:35:25;;;;;;;16.90;11.87;;;;;;;0.29;89.89;102384.22;5045209;28;20301;-57
2021/12/22 09:37:51;;;;;;;26.40;13.77;;;;;;;0.21;89.48;102387.94;5041189;28;20579;-55
2021/12/22 09:40:19;;;;;;;19.20;11.37;;;;;;;0.25;90.21;102379.66;5045063;28;20305;-56
2021/12/22 09:42:45;;;;;;;17.57;12.73;;;;;;;0.39;89.99;102376.28;5044843;28;20234;-55
2021/12/22 09:45:12;;;;;;;17.23;12.60;;;;;;;0.44;88.52;102377.47;5043513;28;20250;-55
2021/12/22 09:47:58;;;;;;;35.30;22.23;;;;;;;0.52;88.33;102372.81;5043646;28;20236;-54
2021/12/22 09:50:38;;;;;;;22.43;13.60;;;;;;;0.58;87.66;102362.00;5046655;28;20238;-55
2021/12/22 09:53:04;;;;;;;16.07;11.77;;;;;;;0.76;87.75;102360.59;5041576;28;20245;-53
2021/12/22 09:55:34;;;;;;;14.00;10.30;;;;;;;0.80;86.42;102356.53;5041783;28;20328;-54
2021/12/22 09:58:01;;;;;;;18.83;13.87;;;;;;;0.64;86.68;102352.97;5041017;28;20673;-55
2021/12/22 10:00:27;;;;;;;19.23;13.23;;;;;;;0.51;87.07;102354.63;5039660;28;20892;-55
2021/12/22 10:02:55;;;;;;;19.40;12.17;;;;;;;0.64;85.85;102359.81;5038304;28;20277;-54
2021/12/22 10:05:21;;;;;;;18.93;12.47;;;;;;;0.69;85.04;102345.50;5045862;28;20265;-53
2021/12/22 10:08:04;;;;;;;19.73;13.60;;;;;;;0.86;84.58;102352.66;5046304;28;20329;-54
2021/12/22 10:10:31;;;;;;;20.13;12.63;;;;;;;0.81;83.71;102354.06;5039297;28;20291;-55
2021/12/22 10:13:05;;;;;;;22.50;13.10;;;;;;;0.83;84.08;102352.44;5044286;28;20239;-55
2021/12/22 10:15:34;;;;;;;18.17;14.17;;;;;;;0.85;84.42;102355.16;5041481;28;20348;-56
2021/12/22 10:18:09;;;;;;;20.93;14.13;;;;;;;0.86;84.68;102349.16;5044401;28;20252;-54
2021/12/22 10:20:36;;;;;;;22.77;14.23;;;;;;;0.81;83.97;102354.06;5045759;28;20319;-55
2021/12/22 10:23:03;;;;;;;20.00;14.47;;;;;;;0.81;84.16;102354.06;5045122;28;20246;-55
2021/12/22 10:25:31;;;;;;;19.97;14.40;;;;;;;0.74;83.41;102346.69;5044745;28;20663;-55
2021/12/22 10:27:59;;;;;;;19.77;13.37;;;;;;;0.79;84.20;102341.81;5046445;28;20266;-58
2021/12/22 10:30:30;;;;;;;20.60;14.40;;;;;;;0.74;84.03;102341.53;5044871;28;20237;-56
2021/12/22 10:33:14;;;;;;;25.77;13.97;;;;;;;0.77;83.44;102338.22;5042748;28;20241;-56
2021/12/22 10:35:42;;;;;;;18.83;12.07;;;;;;;0.82;84.02;102342.91;5043359;28;20564;-55
2021/12/22 10:38:10;;;;;;;20.07;13.83;;;;;;;0.97;83.44;102342.09;5044364;28;20315;-55
2021/12/22 10:40:39;;;;;;;18.63;13.57;;;;;;;0.89;83.30;102339.91;5042674;28;20309;-58
2021/12/22 10:43:06;;;;;;;20.03;13.47;;;;;;;0.87;83.51;102346.66;5043579;28;20254;-57
2021/12/22 10:45:36;;;;;;;19.53;13.10;;;;;;;0.94;83.03;102332.44;5040100;28;20683;-54
2021/12/22 10:50:56;;;;;;;18.63;13.40;;;;;;;1.00;81.43;102331.94;5051591;28;20606;-54
2021/12/22 10:53:23;;;;;;;17.03;11.30;;;;;;;0.91;81.19;102340.94;5040104;28;20281;-54
2021/12/22 10:55:51;;;;;;;17.33;11.60;;;;;;;0.89;81.58;102324.41;5043937;28;20251;-54
2021/12/22 10:58:24;;;;;;;16.60;11.97;;;;;;;0.90;81.91;102331.34;5045286;28;20237;-56
2021/12/22 11:01:09;;;;;;;19.77;12.83;;;;;;;0.83;82.02;102329.19;5042320;28;20234;-55
2021/12/22 11:03:40;;;;;;;17.77;13.23;;;;;;;0.90;82.15;102323.59;5040804;28;20269;-56
2021/12/22 11:06:20;;;;;;;18.87;12.50;;;;;;;1.08;81.42;102329.03;5047291;28;20238;-55
2021/12/22 11:08:53;;;;;;;17.13;11.57;;;;;;;1.01;80.77;102323.38;5045626;28;20238;-57
2021/12/22 11:11:20;;;;;;;15.38;13.13;;;;;;;1.09;81.11;102324.75;5050562;28;20530;-56
2021/12/22 11:14:02;;;;;;;18.20;12.10;;;;;;;1.04;80.83;102318.41;5049180;28;20968;-54
2021/12/22 11:16:28;;;;;;;16.83;11.93;;;;;;;0.98;79.41;102318.00;5050078;28;20306;-56
2021/12/22 11:18:55;;;;;;;15.83;12.17;;;;;;;1.06;79.47;102314.25;5047767;28;20226;-58
2021/12/22 11:21:28;;;;;;;15.67;12.57;;;;;;;1.08;80.42;102315.22;5054695;28;20313;-55
2021/12/22 11:23:55;;;;;;;18.93;14.10;;;;;;;1.11;79.70;102312.81;5039495;28;20285;-55
2021/12/22 11:26:22;;;;;;;19.27;12.60;;;;;;;1.26;79.75;102310.28;5046699;28;20253;-55
2021/12/22 11:28:48;;;;;;;18.07;12.03;;;;;;;1.21;78.94;102311.72;5050455;28;20263;-57
2021/12/22 11:31:15;;;;;;;20.33;14.13;;;;;;;1.06;81.09;102311.66;5047261;28;20776;-55
2021/12/22 11:33:42;;;;;;;16.93;13.43;;;;;;;1.12;78.25;102310.34;5047653;28;20842;-58
2021/12/22 11:36:10;;;;;;;18.47;12.27;;;;;;;1.19;77.81;102314.19;5050988;28;20235;-54
2021/12/22 11:38:38;;;;;;;21.60;14.17;;;;;;;1.17;78.72;102305.47;5047957;28;20872;-57
2021/12/22 11:41:12;;;;;;;16.50;11.37;;;;;;;1.14;78.35;102306.16;5047569;28;20255;-55
2021/12/22 11:43:39;;;;;;;17.23;13.00;;;;;;;1.18;78.44;102307.22;5048254;28;20242;-56
2021/12/22 11:46:06;;;;;;;16.73;12.97;;;;;;;1.18;78.87;102302.06;5046179;28;20265;-55